Terminal Aerodrome Forecast
Issued by NWS

Home | Current Version | Previous Version | Graphics & Text | Print | Product List | Glossary On
Versions: 1 2 3 4 5 6 7 8 9 10 11 12 13 14
318
FTUS43 KUNR 201129
TAFGCC
TAF
KGCC 201129Z 2012/2112 14013KT P6SM BKN150
     FM201700 14012KT P6SM BKN050
     FM202200 11010KT P6SM -SHRA SCT015 BKN020=

USA.gov is the U.S. government's official web portal to all federal, state and local government web resources and services.